createdAt,value
2023-05-25T00:01:09.020Z,99.90
2023-05-25T00:03:36.546Z,99.90
2023-05-25T00:06:03.976Z,99.90
2023-05-25T00:08:32.605Z,99.90
2023-05-25T00:10:59.693Z,99.90
2023-05-25T00:13:26.989Z,99.90
2023-05-25T00:15:54.119Z,99.90
2023-05-25T00:18:21.331Z,99.90
2023-05-25T00:20:48.277Z,99.90
2023-05-25T00:23:15.517Z,99.90
2023-05-25T00:25:43.965Z,99.90
2023-05-25T00:28:11.676Z,99.90
2023-05-25T00:30:38.787Z,99.90
2023-05-25T00:33:06.158Z,99.90
2023-05-25T00:35:33.006Z,99.90
2023-05-25T00:38:00.173Z,99.90
2023-05-25T00:40:27.279Z,99.90
2023-05-25T00:42:56.407Z,99.90
2023-05-25T00:45:23.222Z,99.90
2023-05-25T00:47:52.444Z,99.90
2023-05-25T00:50:27.000Z,99.90
2023-05-25T00:52:54.779Z,99.90
2023-05-25T00:55:22.801Z,99.90
2023-05-25T00:57:52.107Z,99.90
2023-05-25T01:00:21.234Z,99.90
2023-05-25T01:02:53.089Z,99.90
2023-05-25T01:05:21.645Z,99.90
2023-05-25T01:07:50.894Z,99.90
2023-05-25T01:10:19.091Z,99.90
2023-05-25T01:12:46.889Z,99.90
2023-05-25T01:15:14.216Z,99.90
2023-05-25T01:17:44.079Z,99.90
2023-05-25T01:20:12.171Z,99.90
2023-05-25T01:22:45.724Z,99.90
2023-05-25T01:25:17.575Z,99.90
2023-05-25T01:27:49.361Z,99.90
2023-05-25T01:30:18.618Z,99.90
2023-05-25T01:32:46.267Z,99.90
2023-05-25T01:35:14.980Z,99.90
2023-05-25T01:37:48.079Z,99.90
2023-05-25T01:40:15.665Z,99.90
2023-05-25T01:42:42.902Z,99.90
2023-05-25T01:45:11.584Z,99.90
2023-05-25T01:47:47.092Z,99.90
2023-05-25T01:50:22.338Z,99.90
2023-05-25T01:53:03.008Z,99.90
2023-05-25T01:55:36.354Z,99.90
2023-05-25T01:58:05.428Z,99.90
2023-05-25T02:00:33.525Z,99.90
2023-05-25T02:03:03.923Z,99.90
2023-05-25T02:05:31.161Z,99.90
2023-05-25T02:07:59.737Z,99.90
2023-05-25T02:10:26.736Z,99.90
2023-05-25T02:12:53.917Z,99.90
2023-05-25T02:15:21.666Z,99.90
2023-05-25T02:17:48.975Z,99.90
2023-05-25T02:20:15.993Z,99.90
2023-05-25T02:22:43.238Z,99.90
2023-05-25T02:25:11.566Z,99.90
2023-05-25T02:27:38.772Z,99.90
2023-05-25T02:30:07.751Z,99.90
2023-05-25T02:32:35.723Z,99.90
2023-05-25T02:35:02.858Z,99.90
2023-05-25T02:37:30.264Z,99.90
2023-05-25T02:39:57.158Z,99.90
2023-05-25T02:42:25.559Z,99.90
2023-05-25T02:44:52.360Z,99.90
2023-05-25T02:47:19.725Z,99.90
2023-05-25T02:49:47.252Z,99.90
2023-05-25T02:52:14.715Z,99.90
2023-05-25T02:54:41.928Z,99.90
2023-05-25T02:57:09.191Z,99.90
2023-05-25T02:59:37.448Z,99.90
2023-05-25T03:02:04.865Z,99.90
2023-05-25T03:04:33.991Z,99.90
2023-05-25T03:07:01.859Z,99.90
2023-05-25T03:09:29.213Z,99.90
2023-05-25T03:11:56.732Z,99.90
2023-05-25T03:14:23.569Z,99.90
2023-05-25T03:16:53.961Z,99.90
2023-05-25T03:19:21.448Z,99.90
2023-05-25T03:21:48.659Z,99.90
2023-05-25T03:24:15.802Z,99.90
2023-05-25T03:26:42.985Z,99.90
2023-05-25T03:29:10.187Z,99.90
2023-05-25T03:31:37.399Z,99.90
2023-05-25T03:34:06.912Z,99.90
2023-05-25T03:36:34.323Z,99.90
2023-05-25T03:39:01.290Z,99.90
2023-05-25T03:41:28.507Z,99.90
2023-05-25T03:43:55.330Z,99.90
2023-05-25T03:46:22.585Z,99.90
2023-05-25T03:48:49.682Z,99.90
2023-05-25T03:51:18.331Z,99.90
2023-05-25T03:53:45.387Z,99.90
2023-05-25T03:56:12.488Z,99.90
2023-05-25T03:58:39.337Z,99.90
2023-05-25T04:01:06.565Z,99.90
2023-05-25T04:03:33.823Z,99.90
2023-05-25T04:06:02.429Z,99.90
2023-05-25T04:08:30.665Z,99.90
2023-05-25T04:10:57.901Z,99.90
2023-05-25T04:13:24.779Z,99.90
2023-05-25T04:15:52.010Z,99.90
2023-05-25T04:18:19.239Z,99.90
2023-05-25T04:20:46.560Z,99.90
2023-05-25T04:23:13.424Z,99.90
2023-05-25T04:25:42.578Z,99.90
2023-05-25T04:28:09.521Z,99.90
2023-05-25T04:30:36.717Z,99.90
2023-05-25T04:33:03.915Z,99.90
2023-05-25T04:35:32.165Z,99.90
2023-05-25T04:38:02.697Z,99.90
2023-05-25T04:40:30.184Z,99.90
2023-05-25T04:42:58.601Z,99.90
2023-05-25T04:45:26.004Z,99.90
2023-05-25T04:47:52.952Z,99.90
2023-05-25T04:50:20.096Z,99.90
2023-05-25T04:52:46.926Z,99.90
2023-05-25T04:55:14.366Z,99.90
2023-05-25T04:57:41.292Z,99.90
2023-05-25T05:00:11.423Z,99.90
2023-05-25T05:02:38.355Z,99.90
2023-05-25T05:05:06.793Z,99.90
2023-05-25T05:07:34.029Z,99.90
2023-05-25T05:10:01.319Z,99.90
2023-05-25T05:12:28.155Z,99.90
2023-05-25T05:14:56.331Z,99.90
2023-05-25T05:17:26.358Z,99.90
2023-05-25T05:19:53.729Z,99.90
2023-05-25T05:22:20.597Z,99.90
2023-05-25T05:24:47.433Z,99.90
2023-05-25T05:27:16.382Z,99.90
2023-05-25T05:29:43.443Z,99.90
2023-05-25T05:32:10.837Z,99.90
2023-05-25T05:34:39.106Z,99.90
2023-05-25T05:37:06.351Z,99.90
2023-05-25T05:39:33.303Z,99.90
2023-05-25T05:42:00.402Z,99.90
2023-05-25T05:44:29.249Z,99.90
2023-05-25T05:47:01.312Z,99.90
2023-05-25T05:49:28.568Z,99.90
2023-05-25T05:51:57.602Z,99.90
2023-05-25T05:54:24.790Z,99.90
2023-05-25T05:56:52.154Z,99.90
2023-05-25T05:59:21.332Z,99.90
2023-05-25T06:01:48.744Z,99.90
2023-05-25T06:04:16.039Z,99.90
2023-05-25T06:06:45.531Z,99.90
2023-05-25T06:09:13.783Z,99.90
2023-05-25T06:11:41.607Z,99.90
2023-05-25T06:14:08.485Z,99.90
2023-05-25T06:16:36.895Z,99.90
2023-05-25T06:19:03.875Z,99.90
2023-05-25T06:21:31.452Z,99.90
2023-05-25T06:23:58.275Z,99.90
2023-05-25T06:26:27.690Z,99.90
2023-05-25T06:28:54.553Z,99.90
2023-05-25T06:31:21.480Z,99.90
2023-05-25T06:33:48.521Z,99.90
2023-05-25T06:36:16.058Z,99.90
2023-05-25T06:38:43.074Z,99.90
2023-05-25T06:41:12.790Z,99.90
2023-05-25T06:43:42.340Z,99.90
2023-05-25T06:46:18.537Z,99.90
2023-05-25T06:48:46.051Z,99.90
2023-05-25T06:51:13.578Z,99.90
2023-05-25T06:53:40.610Z,99.90
2023-05-25T06:56:07.659Z,99.90
2023-05-25T06:58:34.584Z,99.90
2023-05-25T07:01:03.059Z,99.90
2023-05-25T07:03:30.255Z,99.90
2023-05-25T07:05:57.618Z,99.90
2023-05-25T07:08:24.480Z,99.90
2023-05-25T07:10:51.684Z,99.90
2023-05-25T07:13:18.571Z,99.90
2023-05-25T07:15:46.102Z,99.90
2023-05-25T07:18:14.617Z,99.90
2023-05-25T07:20:42.720Z,99.90
2023-05-25T07:23:10.057Z,99.90
2023-05-25T07:25:38.535Z,99.90
2023-05-25T07:28:05.526Z,99.90
2023-05-25T07:30:32.723Z,99.90
2023-05-25T07:33:00.263Z,99.90
2023-05-25T07:35:28.970Z,99.90
2023-05-25T07:37:59.410Z,99.90
2023-05-25T07:40:26.958Z,99.90
2023-05-25T07:42:54.376Z,99.90
2023-05-25T07:45:21.951Z,99.90
2023-05-25T07:47:49.201Z,99.90
2023-05-25T07:50:16.566Z,99.90
2023-05-25T07:52:45.313Z,99.90
2023-05-25T07:55:12.410Z,99.90
2023-05-25T07:57:39.361Z,99.90
2023-05-25T08:00:11.019Z,95.50
2023-05-25T08:02:38.081Z,71.50
2023-05-25T08:05:06.551Z,46.60
2023-05-25T08:07:34.367Z,57.90
2023-05-25T08:10:03.657Z,62.30
2023-05-25T08:12:46.938Z,62.40
2023-05-25T08:15:15.769Z,54.20
2023-05-25T08:17:42.659Z,56.90
2023-05-25T08:20:10.850Z,51.00
2023-05-25T08:22:37.941Z,39.50
2023-05-25T08:25:07.195Z,39.20
2023-05-25T08:27:36.020Z,31.50
2023-05-25T08:30:06.190Z,5.50
2023-05-25T08:32:33.276Z,1.00
2023-05-25T08:35:02.083Z,1.00
2023-05-25T08:37:29.320Z,1.00
2023-05-25T08:39:56.735Z,1.00
2023-05-25T08:42:24.985Z,1.00
2023-05-25T08:44:52.311Z,1.00
2023-05-25T08:47:22.484Z,1.00
2023-05-25T08:49:50.854Z,1.00
2023-05-25T08:52:22.294Z,1.00
2023-05-25T08:54:54.685Z,1.00
2023-05-25T08:57:34.269Z,1.00
2023-05-25T09:00:04.961Z,1.00
2023-05-25T09:02:39.119Z,1.00
2023-05-25T09:05:07.711Z,1.00
2023-05-25T09:07:35.887Z,1.00
2023-05-25T09:10:03.983Z,1.00
2023-05-25T09:12:32.608Z,1.00
2023-05-25T09:15:00.399Z,1.00
2023-05-25T09:17:27.514Z,1.00
2023-05-25T09:19:55.360Z,1.00
2023-05-25T09:22:22.542Z,1.00
2023-05-25T09:24:50.070Z,1.00
2023-05-25T09:27:18.503Z,1.00
2023-05-25T09:29:48.021Z,1.00
2023-05-25T09:32:15.624Z,1.00
2023-05-25T09:34:43.892Z,1.00
2023-05-25T09:37:16.259Z,1.00
2023-05-25T09:39:44.314Z,1.00
2023-05-25T09:42:11.490Z,1.00
2023-05-25T09:44:39.630Z,1.00
2023-05-25T09:47:08.060Z,1.00
2023-05-25T09:49:35.817Z,1.00
2023-05-25T09:52:02.881Z,1.00
2023-05-25T09:54:30.071Z,1.00
2023-05-25T09:56:56.991Z,1.00
2023-05-25T09:59:24.179Z,1.00
2023-05-25T10:01:54.712Z,1.00
2023-05-25T10:04:23.052Z,1.00
2023-05-25T10:06:52.022Z,1.00
2023-05-25T10:09:20.375Z,1.00
2023-05-25T10:11:49.981Z,1.00
2023-05-25T10:14:23.170Z,1.00
2023-05-25T10:16:54.237Z,1.00
2023-05-25T10:19:28.857Z,1.00
2023-05-25T10:22:01.345Z,1.00
2023-05-25T10:24:35.462Z,1.00
2023-05-25T10:27:11.175Z,1.00
2023-05-25T10:29:49.726Z,1.00
2023-05-25T10:32:18.343Z,1.00
2023-05-25T10:34:47.199Z,1.00
2023-05-25T10:37:15.061Z,1.00
2023-05-25T10:39:46.271Z,1.00
2023-05-25T10:42:13.386Z,1.00
2023-05-25T10:44:42.409Z,1.00
2023-05-25T10:47:10.296Z,1.00
2023-05-25T10:49:54.400Z,1.00
2023-05-25T10:52:22.039Z,1.00
2023-05-25T10:54:49.706Z,1.00
2023-05-25T10:57:21.706Z,1.00
2023-05-25T10:59:50.638Z,1.00
2023-05-25T11:02:23.026Z,1.00
2023-05-25T11:04:51.024Z,1.00
2023-05-25T11:07:22.078Z,1.00
2023-05-25T11:09:59.812Z,1.00
2023-05-25T11:12:26.955Z,1.00
2023-05-25T11:15:12.140Z,1.00
2023-05-25T11:17:47.804Z,1.00
2023-05-25T11:20:34.258Z,1.00
2023-05-25T11:23:22.881Z,1.00
2023-05-25T11:25:50.216Z,1.00
2023-05-25T11:28:20.319Z,1.00
2023-05-25T11:30:47.757Z,1.00
2023-05-25T11:33:16.975Z,1.00
2023-05-25T11:35:45.870Z,1.00
2023-05-25T11:38:15.881Z,1.00
2023-05-25T11:40:43.195Z,1.00
2023-05-25T11:43:11.581Z,1.00
2023-05-25T11:45:39.662Z,1.00
2023-05-25T11:48:06.820Z,1.00
2023-05-25T11:50:34.450Z,1.00
2023-05-25T11:53:06.123Z,1.00
2023-05-25T11:55:35.026Z,1.00
2023-05-25T11:58:01.962Z,1.00
2023-05-25T12:00:32.279Z,1.00
2023-05-25T12:02:59.260Z,1.00
2023-05-25T12:05:26.686Z,1.00
2023-05-25T12:07:53.764Z,1.00
2023-05-25T12:10:24.372Z,1.00
2023-05-25T12:12:58.057Z,1.00
2023-05-25T12:15:26.391Z,1.00
2023-05-25T12:17:54.669Z,1.00
2023-05-25T12:20:23.062Z,1.00
2023-05-25T12:22:50.463Z,1.00
2023-05-25T12:29:13.066Z,1.00
2023-05-25T12:32:07.054Z,1.00
2023-05-25T12:34:37.667Z,1.00
2023-05-25T12:37:06.416Z,1.00
2023-05-25T12:40:04.968Z,1.00
2023-05-25T12:42:34.603Z,1.00
2023-05-25T12:45:03.438Z,1.00
2023-05-25T12:47:32.508Z,1.00
2023-05-25T12:50:13.148Z,1.00
2023-05-25T12:52:41.518Z,1.00
2023-05-25T12:55:26.628Z,1.00
2023-05-25T12:57:54.634Z,1.00
2023-05-25T13:00:25.701Z,1.00
2023-05-25T13:02:53.633Z,1.00
2023-05-25T13:05:23.181Z,1.00
2023-05-25T13:07:53.734Z,1.00
2023-05-25T13:10:22.298Z,1.00
2023-05-25T13:12:59.255Z,1.00
2023-05-25T13:15:30.072Z,1.00
2023-05-25T13:18:05.035Z,1.00
2023-05-25T13:20:32.993Z,1.00
2023-05-25T13:23:00.230Z,1.00
2023-05-25T13:25:28.281Z,1.00
2023-05-25T13:27:57.644Z,1.00
2023-05-25T13:30:25.065Z,1.00
2023-05-25T13:32:53.589Z,1.00
2023-05-25T13:35:38.011Z,1.00
2023-05-25T13:38:05.119Z,1.00
2023-05-25T13:40:32.239Z,1.00
2023-05-25T13:43:00.307Z,1.00
2023-05-25T13:45:27.891Z,1.00
2023-05-25T13:47:56.322Z,1.00
2023-05-25T13:50:23.326Z,1.00
2023-05-25T13:52:50.270Z,1.00
2023-05-25T13:55:17.552Z,1.00
2023-05-25T13:57:44.414Z,1.00
2023-05-25T14:00:14.627Z,1.00
2023-05-25T14:02:41.851Z,1.00
2023-05-25T14:05:11.089Z,99.90
2023-05-25T14:07:39.318Z,99.90
2023-05-25T14:10:08.278Z,99.90
2023-05-25T14:12:36.980Z,1.00
2023-05-25T14:15:04.550Z,1.00
2023-05-25T14:17:31.642Z,1.40
2023-05-25T14:19:58.905Z,1.00
2023-05-25T14:22:28.120Z,1.00
2023-05-25T14:24:55.037Z,1.00
2023-05-25T14:27:22.596Z,1.00
2023-05-25T14:29:50.465Z,1.00
2023-05-25T14:32:17.945Z,1.00
2023-05-25T14:34:45.554Z,1.00
2023-05-25T14:37:13.148Z,1.00
2023-05-25T14:39:41.382Z,1.00
2023-05-25T14:42:08.638Z,1.00
2023-05-25T14:44:35.621Z,1.00
2023-05-25T14:47:03.136Z,1.00
2023-05-25T14:49:30.141Z,1.00
2023-05-25T14:51:57.443Z,1.00
2023-05-25T14:54:24.492Z,1.00
2023-05-25T14:56:53.250Z,1.00
2023-05-25T14:59:21.497Z,1.00
2023-05-25T15:01:48.861Z,1.00
2023-05-25T15:04:15.873Z,1.00
2023-05-25T15:06:43.045Z,1.00
2023-05-25T15:09:10.041Z,1.00
2023-05-25T15:11:37.213Z,1.00
2023-05-25T15:14:05.594Z,1.00
2023-05-25T15:16:33.033Z,1.00
2023-05-25T15:19:01.109Z,1.00
2023-05-25T15:21:28.521Z,99.90
2023-05-25T15:23:55.686Z,99.90
2023-05-25T15:26:23.844Z,1.00
2023-05-25T15:28:50.824Z,1.00
2023-05-25T15:31:19.610Z,1.00
2023-05-25T15:33:56.360Z,1.00
2023-05-25T15:36:25.278Z,99.90
2023-05-25T15:38:52.243Z,99.90
2023-05-25T15:41:19.563Z,99.90
2023-05-25T15:43:51.326Z,99.90
2023-05-25T15:46:20.255Z,99.90
2023-05-25T15:48:47.221Z,99.90
2023-05-25T15:51:14.658Z,99.90
2023-05-25T15:53:41.725Z,99.90
2023-05-25T15:56:08.950Z,99.90
2023-05-25T15:58:35.933Z,99.90
2023-05-25T16:01:03.385Z,99.90
2023-05-25T16:03:31.754Z,99.90
2023-05-25T16:06:01.293Z,99.90
2023-05-25T16:08:28.245Z,99.90
2023-05-25T16:10:55.395Z,99.90
2023-05-25T16:13:22.267Z,99.90
2023-05-25T16:15:49.163Z,99.90
2023-05-25T16:18:16.609Z,99.90
2023-05-25T16:20:45.315Z,99.90
2023-05-25T16:23:12.259Z,99.90
2023-05-25T16:25:39.071Z,99.90
2023-05-25T16:28:05.920Z,99.90
2023-05-25T16:30:33.127Z,99.90
2023-05-25T16:33:00.040Z,99.90
2023-05-25T16:35:27.247Z,99.90
2023-05-25T16:37:56.081Z,99.90
2023-05-25T16:40:23.240Z,99.90
2023-05-25T16:42:50.151Z,99.90
2023-05-25T16:45:17.448Z,99.90
2023-05-25T16:47:44.391Z,99.90
2023-05-25T16:50:11.782Z,99.90
2023-05-25T16:52:38.728Z,99.90
2023-05-25T16:55:08.335Z,99.90
2023-05-25T16:57:35.152Z,99.90
2023-05-25T17:00:02.332Z,99.90
2023-05-25T17:02:29.307Z,99.90
2023-05-25T17:04:56.526Z,99.90
2023-05-25T17:07:23.376Z,99.90
2023-05-25T17:09:50.651Z,1.00
2023-05-25T17:12:18.869Z,1.00
2023-05-25T17:14:46.092Z,1.00
2023-05-25T17:17:13.494Z,1.00
2023-05-25T17:19:40.757Z,1.00
2023-05-25T17:22:07.724Z,1.00
2023-05-25T17:24:36.194Z,1.00
2023-05-25T17:27:03.331Z,1.00
2023-05-25T17:29:32.010Z,1.00
2023-05-25T17:31:59.061Z,1.00
2023-05-25T17:34:26.235Z,1.00
2023-05-25T17:36:53.187Z,1.00
2023-05-25T17:39:20.190Z,1.00
2023-05-25T17:41:47.793Z,1.00
2023-05-25T17:44:14.690Z,1.00
2023-05-25T17:46:43.013Z,1.00
2023-05-25T17:49:10.045Z,1.00
2023-05-25T17:51:37.736Z,1.00
2023-05-25T17:54:05.710Z,1.00
2023-05-25T17:56:33.063Z,1.00
2023-05-25T17:59:00.094Z,1.00
2023-05-25T18:01:27.204Z,1.00
2023-05-25T18:03:56.606Z,1.00
2023-05-25T18:06:23.596Z,1.00
2023-05-25T18:08:52.657Z,1.00
2023-05-25T18:11:19.541Z,1.00
2023-05-25T18:13:46.562Z,1.00
2023-05-25T18:16:13.451Z,1.00
2023-05-25T18:18:40.516Z,1.00
2023-05-25T18:21:08.770Z,1.00
2023-05-25T18:23:35.921Z,1.00
2023-05-25T18:26:04.603Z,1.00
2023-05-25T18:28:32.278Z,1.00
2023-05-25T18:30:59.215Z,1.00
2023-05-25T18:33:26.230Z,1.00
2023-05-25T18:35:53.159Z,1.00
2023-05-25T18:38:21.893Z,1.00
2023-05-25T18:40:48.951Z,1.00
2023-05-25T18:43:16.014Z,1.00
2023-05-25T18:45:42.967Z,1.00
2023-05-25T18:48:10.454Z,1.00
2023-05-25T18:50:39.221Z,1.00
2023-05-25T18:53:07.770Z,1.00
2023-05-25T18:55:36.119Z,1.00
2023-05-25T18:58:03.479Z,1.00
2023-05-25T19:00:30.433Z,1.00
2023-05-25T19:02:57.951Z,1.00
2023-05-25T19:05:25.013Z,1.00
2023-05-25T19:07:59.131Z,1.00
2023-05-25T19:10:27.096Z,1.00
2023-05-25T19:12:55.434Z,1.00
2023-05-25T19:15:22.573Z,1.00
2023-05-25T19:17:49.933Z,1.00
2023-05-25T19:20:17.104Z,1.00
2023-05-25T19:22:44.573Z,1.00
2023-05-25T19:25:11.668Z,1.00
2023-05-25T19:27:43.324Z,1.00
2023-05-25T19:30:12.154Z,1.00
2023-05-25T19:32:39.134Z,1.00
2023-05-25T19:35:06.721Z,1.00
2023-05-25T19:37:33.728Z,1.00
2023-05-25T19:40:00.703Z,1.00
2023-05-25T19:42:27.690Z,1.00
2023-05-25T19:44:54.627Z,1.00
2023-05-25T19:47:23.402Z,1.00
2023-05-25T19:49:50.395Z,1.00
2023-05-25T19:52:18.092Z,1.00
2023-05-25T19:54:45.021Z,1.00
2023-05-25T19:57:12.322Z,1.00
2023-05-25T19:59:39.306Z,1.00
2023-05-25T20:02:06.961Z,1.00
2023-05-25T20:04:35.460Z,1.00
2023-05-25T20:07:02.679Z,1.00
2023-05-25T20:09:30.646Z,1.00
2023-05-25T20:11:58.726Z,1.00
2023-05-25T20:14:25.984Z,1.00
2023-05-25T20:16:55.251Z,1.00
2023-05-25T20:19:23.272Z,1.00
2023-05-25T20:21:51.645Z,1.00
2023-05-25T20:24:18.604Z,1.00
2023-05-25T20:26:45.550Z,1.00
2023-05-25T20:29:12.434Z,1.00
2023-05-25T20:31:40.257Z,1.00
2023-05-25T20:34:07.609Z,1.00
2023-05-25T20:36:34.612Z,1.00
2023-05-25T20:39:03.299Z,1.00
2023-05-25T20:41:30.713Z,1.00
2023-05-25T20:43:57.872Z,1.00
2023-05-25T20:46:24.855Z,1.00
2023-05-25T20:48:53.294Z,1.00
2023-05-25T20:51:21.791Z,1.00
2023-05-25T20:53:49.195Z,1.00
2023-05-25T20:56:18.217Z,1.00
2023-05-25T20:58:45.063Z,1.00
2023-05-25T21:01:12.118Z,1.00
2023-05-25T21:03:39.892Z,1.00
2023-05-25T21:06:07.431Z,1.00
2023-05-25T21:08:34.760Z,1.00
2023-05-25T21:11:02.023Z,1.00
2023-05-25T21:13:30.383Z,1.00
2023-05-25T21:15:58.091Z,1.00
2023-05-25T21:18:25.251Z,1.00
2023-05-25T21:20:52.431Z,1.00
2023-05-25T21:23:19.503Z,1.00
2023-05-25T21:25:47.000Z,1.00
2023-05-25T21:28:14.502Z,1.00
2023-05-25T21:30:43.145Z,1.00
2023-05-25T21:33:10.226Z,1.00
2023-05-25T21:35:37.366Z,1.00
2023-05-25T21:38:04.603Z,1.00
2023-05-25T21:40:32.102Z,1.00
2023-05-25T21:42:58.994Z,1.00
2023-05-25T21:45:26.193Z,1.00
2023-05-25T21:47:54.518Z,1.00
2023-05-25T21:50:21.714Z,1.00
2023-05-25T21:52:48.603Z,1.00
2023-05-25T21:55:15.849Z,1.00
2023-05-25T21:57:42.883Z,1.00
2023-05-25T22:00:12.982Z,1.00
2023-05-25T22:02:40.257Z,1.00
2023-05-25T22:05:09.000Z,1.00
2023-05-25T22:07:35.918Z,1.00
2023-05-25T22:10:02.840Z,1.00
2023-05-25T22:12:30.145Z,1.00
2023-05-25T22:14:57.379Z,1.00
2023-05-25T22:17:24.259Z,1.00
2023-05-25T22:20:03.131Z,1.00
2023-05-25T22:22:37.581Z,1.00
2023-05-25T22:25:04.974Z,1.00
2023-05-25T22:27:32.380Z,1.00
2023-05-25T22:29:59.283Z,1.00
2023-05-25T22:32:27.658Z,1.00
2023-05-25T22:34:54.532Z,1.00
2023-05-25T22:37:21.765Z,1.00
2023-05-25T22:39:50.553Z,1.00
2023-05-25T22:42:17.823Z,1.00
2023-05-25T22:44:44.654Z,1.00
2023-05-25T22:47:12.073Z,1.00
2023-05-25T22:49:43.794Z,1.00
2023-05-25T22:52:11.823Z,1.00
2023-05-25T22:54:38.828Z,1.00
2023-05-25T22:57:09.102Z,1.00
2023-05-25T22:59:36.075Z,1.00
2023-05-25T23:02:03.381Z,1.00
2023-05-25T23:04:30.306Z,1.00
2023-05-25T23:06:57.674Z,1.00
2023-05-25T23:09:24.513Z,1.00
2023-05-25T23:11:51.737Z,1.00
2023-05-25T23:14:20.819Z,1.00
2023-05-25T23:16:50.723Z,1.00
2023-05-25T23:19:17.863Z,1.00
2023-05-25T23:21:45.181Z,4.20
2023-05-25T23:24:12.171Z,11.00
2023-05-25T23:26:39.315Z,14.10
2023-05-25T23:29:06.221Z,17.10
2023-05-25T23:31:34.974Z,21.00
2023-05-25T23:34:01.837Z,27.90
2023-05-25T23:36:29.160Z,30.20
2023-05-25T23:38:56.123Z,35.60
2023-05-25T23:41:23.494Z,37.50
2023-05-25T23:43:50.667Z,47.40
2023-05-25T23:46:18.176Z,50.70
2023-05-25T23:48:46.717Z,57.80
2023-05-25T23:51:13.982Z,65.20
2023-05-25T23:53:40.913Z,68.50
2023-05-25T23:56:09.201Z,74.70
2023-05-25T23:58:36.714Z,77.40
